sensor_id;sensor_type;location;lat;lon;timestamp;pressure;altitude;pressure_sealevel;temperature;humidity
59686;BME280;45554;51.096;16.976;2024-02-23T00:01:31;97815.71;;;9.70;84.24
59686;BME280;45554;51.096;16.976;2024-02-23T00:03:59;97825.32;;;9.79;84.07
59686;BME280;45554;51.096;16.976;2024-02-23T00:06:27;97821.68;;;9.85;83.63
59686;BME280;45554;51.096;16.976;2024-02-23T00:08:56;97825.55;;;9.93;83.61
59686;BME280;45554;51.096;16.976;2024-02-23T00:11:26;97824.03;;;10.00;83.51
59686;BME280;45554;51.096;16.976;2024-02-23T00:13:56;97829.30;;;10.06;82.89
59686;BME280;45554;51.096;16.976;2024-02-23T00:16:24;97823.33;;;10.12;82.73
59686;BME280;45554;51.096;16.976;2024-02-23T00:18:55;97821.09;;;10.19;82.61
59686;BME280;45554;51.096;16.976;2024-02-23T00:21:23;97821.88;;;10.26;81.93
59686;BME280;45554;51.096;16.976;2024-02-23T00:23:51;97822.56;;;10.32;81.66
59686;BME280;45554;51.096;16.976;2024-02-23T00:26:19;97821.93;;;10.36;81.67
59686;BME280;45554;51.096;16.976;2024-02-23T00:28:48;97824.05;;;10.40;81.25
59686;BME280;45554;51.096;16.976;2024-02-23T00:31:16;97816.27;;;10.41;81.21
59686;BME280;45554;51.096;16.976;2024-02-23T00:33:44;97825.38;;;10.47;81.01
59686;BME280;45554;51.096;16.976;2024-02-23T00:36:12;97835.35;;;10.51;80.80
59686;BME280;45554;51.096;16.976;2024-02-23T00:38:40;97838.54;;;10.54;80.62
59686;BME280;45554;51.096;16.976;2024-02-23T00:41:08;97846.71;;;10.57;80.64
59686;BME280;45554;51.096;16.976;2024-02-23T00:43:39;97848.95;;;10.59;80.58
59686;BME280;45554;51.096;16.976;2024-02-23T00:46:08;97852.45;;;10.61;80.70
59686;BME280;45554;51.096;16.976;2024-02-23T00:48:36;97850.74;;;10.61;80.75
59686;BME280;45554;51.096;16.976;2024-02-23T00:51:04;97840.17;;;10.61;80.89
59686;BME280;45554;51.096;16.976;2024-02-23T00:53:32;97834.87;;;10.60;80.80
59686;BME280;45554;51.096;16.976;2024-02-23T00:56:01;97829.98;;;10.58;80.97
59686;BME280;45554;51.096;16.976;2024-02-23T00:58:29;97832.17;;;10.56;80.96
59686;BME280;45554;51.096;16.976;2024-02-23T01:00:57;97820.49;;;10.50;81.06
59686;BME280;45554;51.096;16.976;2024-02-23T01:03:25;97823.27;;;10.51;81.17
59686;BME280;45554;51.096;16.976;2024-02-23T01:05:53;97820.59;;;10.48;81.15
59686;BME280;45554;51.096;16.976;2024-02-23T01:08:21;97825.88;;;10.45;81.18
59686;BME280;45554;51.096;16.976;2024-02-23T01:10:50;97816.67;;;10.42;81.03
59686;BME280;45554;51.096;16.976;2024-02-23T01:13:18;97810.42;;;10.40;81.11
59686;BME280;45554;51.096;16.976;2024-02-23T01:15:47;97811.91;;;10.39;81.03
59686;BME280;45554;51.096;16.976;2024-02-23T01:18:15;97812.73;;;10.38;81.06
59686;BME280;45554;51.096;16.976;2024-02-23T01:20:43;97815.50;;;10.38;81.10
59686;BME280;45554;51.096;16.976;2024-02-23T01:23:14;97810.95;;;10.38;81.13
59686;BME280;45554;51.096;16.976;2024-02-23T01:25:42;97816.34;;;10.38;80.83
59686;BME280;45554;51.096;16.976;2024-02-23T01:28:10;97816.95;;;10.39;81.02
59686;BME280;45554;51.096;16.976;2024-02-23T01:30:38;97821.12;;;10.41;81.02
59686;BME280;45554;51.096;16.976;2024-02-23T01:33:07;97824.58;;;10.42;80.91
59686;BME280;45554;51.096;16.976;2024-02-23T01:35:35;97821.27;;;10.42;80.89
59686;BME280;45554;51.096;16.976;2024-02-23T01:38:04;97813.37;;;10.42;80.78
59686;BME280;45554;51.096;16.976;2024-02-23T01:40:34;97801.02;;;10.41;80.78
59686;BME280;45554;51.096;16.976;2024-02-23T01:43:03;97790.52;;;10.41;80.83
59686;BME280;45554;51.096;16.976;2024-02-23T01:45:32;97782.04;;;10.38;80.65
59686;BME280;45554;51.096;16.976;2024-02-23T01:48:04;97798.06;;;10.41;80.63
59686;BME280;45554;51.096;16.976;2024-02-23T01:50:40;97792.45;;;10.41;80.55
59686;BME280;45554;51.096;16.976;2024-02-23T01:53:09;97786.67;;;10.41;80.65
59686;BME280;45554;51.096;16.976;2024-02-23T01:55:41;97774.10;;;10.37;80.59
59686;BME280;45554;51.096;16.976;2024-02-23T01:58:12;97772.21;;;10.35;80.65
59686;BME280;45554;51.096;16.976;2024-02-23T02:00:41;97779.05;;;10.30;80.67
59686;BME280;45554;51.096;16.976;2024-02-23T02:03:09;97784.15;;;10.28;80.82
59686;BME280;45554;51.096;16.976;2024-02-23T02:05:40;97777.64;;;10.25;80.73
59686;BME280;45554;51.096;16.976;2024-02-23T02:08:10;97760.54;;;10.23;80.83
59686;BME280;45554;51.096;16.976;2024-02-23T02:10:40;97762.15;;;10.19;80.69
59686;BME280;45554;51.096;16.976;2024-02-23T02:13:10;97789.36;;;10.16;80.59
59686;BME280;45554;51.096;16.976;2024-02-23T02:15:38;97806.84;;;10.14;80.62
59686;BME280;45554;51.096;16.976;2024-02-23T02:18:06;97816.84;;;10.14;80.52
59686;BME280;45554;51.096;16.976;2024-02-23T02:20:36;97815.73;;;10.13;80.48
59686;BME280;45554;51.096;16.976;2024-02-23T02:23:06;97814.85;;;10.13;80.49
59686;BME280;45554;51.096;16.976;2024-02-23T02:25:35;97817.05;;;10.12;80.31
59686;BME280;45554;51.096;16.976;2024-02-23T02:28:06;97816.02;;;10.11;80.33
59686;BME280;45554;51.096;16.976;2024-02-23T02:30:38;97821.72;;;10.10;80.19
59686;BME280;45554;51.096;16.976;2024-02-23T02:33:09;97825.83;;;10.09;80.31
59686;BME280;45554;51.096;16.976;2024-02-23T02:35:39;97831.09;;;10.10;80.29
59686;BME280;45554;51.096;16.976;2024-02-23T02:38:07;97832.73;;;10.09;80.26
59686;BME280;45554;51.096;16.976;2024-02-23T02:40:36;97834.42;;;10.09;80.14
59686;BME280;45554;51.096;16.976;2024-02-23T02:43:06;97833.00;;;10.08;80.28
59686;BME280;45554;51.096;16.976;2024-02-23T02:45:35;97832.61;;;10.08;80.04
59686;BME280;45554;51.096;16.976;2024-02-23T02:48:03;97828.35;;;10.09;79.90
59686;BME280;45554;51.096;16.976;2024-02-23T02:50:32;97828.98;;;10.09;79.85
59686;BME280;45554;51.096;16.976;2024-02-23T02:53:01;97826.20;;;10.09;79.66
59686;BME280;45554;51.096;16.976;2024-02-23T02:55:29;97827.77;;;10.09;79.62
59686;BME280;45554;51.096;16.976;2024-02-23T02:58:00;97832.09;;;10.08;79.56
59686;BME280;45554;51.096;16.976;2024-02-23T03:00:28;97831.55;;;10.06;79.58
59686;BME280;45554;51.096;16.976;2024-02-23T03:02:56;97834.52;;;10.06;79.70
59686;BME280;45554;51.096;16.976;2024-02-23T03:05:24;97840.11;;;10.03;79.80
59686;BME280;45554;51.096;16.976;2024-02-23T03:07:53;97850.44;;;10.04;79.66
59686;BME280;45554;51.096;16.976;2024-02-23T03:10:21;97845.58;;;10.04;79.61
59686;BME280;45554;51.096;16.976;2024-02-23T03:12:49;97838.86;;;10.02;79.77
59686;BME280;45554;51.096;16.976;2024-02-23T03:15:17;97833.55;;;10.01;79.74
59686;BME280;45554;51.096;16.976;2024-02-23T03:17:52;97837.46;;;9.99;79.70
59686;BME280;45554;51.096;16.976;2024-02-23T03:20:22;97847.64;;;9.97;79.81
59686;BME280;45554;51.096;16.976;2024-02-23T03:22:50;97856.83;;;9.95;79.80
59686;BME280;45554;51.096;16.976;2024-02-23T03:25:20;97859.01;;;9.95;79.73
59686;BME280;45554;51.096;16.976;2024-02-23T03:27:48;97861.26;;;9.93;80.00
59686;BME280;45554;51.096;16.976;2024-02-23T03:30:17;97865.27;;;9.91;79.84
59686;BME280;45554;51.096;16.976;2024-02-23T03:32:45;97875.14;;;9.91;80.02
59686;BME280;45554;51.096;16.976;2024-02-23T03:35:20;97903.55;;;9.90;80.19
59686;BME280;45554;51.096;16.976;2024-02-23T03:37:48;97926.10;;;9.90;80.19
59686;BME280;45554;51.096;16.976;2024-02-23T03:40:16;97927.31;;;9.92;80.31
59686;BME280;45554;51.096;16.976;2024-02-23T03:42:46;97928.29;;;9.93;80.14
59686;BME280;45554;51.096;16.976;2024-02-23T03:45:15;97921.89;;;9.92;80.31
59686;BME280;45554;51.096;16.976;2024-02-23T03:47:43;97933.25;;;9.96;80.29
59686;BME280;45554;51.096;16.976;2024-02-23T03:50:12;97946.43;;;9.99;80.17
59686;BME280;45554;51.096;16.976;2024-02-23T03:52:40;97952.73;;;10.01;80.45
59686;BME280;45554;51.096;16.976;2024-02-23T03:55:11;97953.77;;;10.05;80.26
59686;BME280;45554;51.096;16.976;2024-02-23T03:57:42;97963.70;;;10.08;80.17
59686;BME280;45554;51.096;16.976;2024-02-23T04:00:14;97962.65;;;10.08;80.26
59686;BME280;45554;51.096;16.976;2024-02-23T04:02:42;97968.10;;;10.08;80.27
59686;BME280;45554;51.096;16.976;2024-02-23T04:05:14;97975.16;;;10.07;80.03
59686;BME280;45554;51.096;16.976;2024-02-23T04:07:42;97978.92;;;10.04;80.05
59686;BME280;45554;51.096;16.976;2024-02-23T04:10:12;97985.17;;;10.00;80.27
59686;BME280;45554;51.096;16.976;2024-02-23T04:12:46;97981.13;;;9.96;80.40
59686;BME280;45554;51.096;16.976;2024-02-23T04:15:18;97986.29;;;9.98;80.34
59686;BME280;45554;51.096;16.976;2024-02-23T04:17:46;97995.44;;;9.97;80.41
59686;BME280;45554;51.096;16.976;2024-02-23T04:20:14;97994.64;;;9.96;80.20
59686;BME280;45554;51.096;16.976;2024-02-23T04:22:43;97990.58;;;9.97;80.29
59686;BME280;45554;51.096;16.976;2024-02-23T04:25:11;97989.96;;;9.98;80.23
59686;BME280;45554;51.096;16.976;2024-02-23T04:27:39;97986.40;;;9.98;80.24
59686;BME280;45554;51.096;16.976;2024-02-23T04:30:08;97985.25;;;10.00;79.99
59686;BME280;45554;51.096;16.976;2024-02-23T04:32:36;97985.20;;;10.00;79.74
59686;BME280;45554;51.096;16.976;2024-02-23T04:35:08;97993.38;;;9.99;79.82
59686;BME280;45554;51.096;16.976;2024-02-23T04:37:36;97997.04;;;9.97;79.64
59686;BME280;45554;51.096;16.976;2024-02-23T04:40:05;97989.09;;;9.94;79.58
59686;BME280;45554;51.096;16.976;2024-02-23T04:42:33;97991.17;;;9.90;79.56
59686;BME280;45554;51.096;16.976;2024-02-23T04:45:01;97996.33;;;9.89;79.71
59686;BME280;45554;51.096;16.976;2024-02-23T04:47:30;98001.35;;;9.90;79.78
59686;BME280;45554;51.096;16.976;2024-02-23T04:49:58;98000.63;;;9.88;79.78
59686;BME280;45554;51.096;16.976;2024-02-23T04:52:31;98002.20;;;9.90;79.96
59686;BME280;45554;51.096;16.976;2024-02-23T04:55:03;98002.73;;;9.90;79.89
59686;BME280;45554;51.096;16.976;2024-02-23T04:57:40;98005.30;;;9.91;79.72
59686;BME280;45554;51.096;16.976;2024-02-23T05:00:09;98009.64;;;9.89;79.73
59686;BME280;45554;51.096;16.976;2024-02-23T05:02:42;98027.73;;;9.88;79.68
59686;BME280;45554;51.096;16.976;2024-02-23T05:05:10;98033.52;;;9.86;79.68
59686;BME280;45554;51.096;16.976;2024-02-23T05:07:38;98040.15;;;9.84;79.78
59686;BME280;45554;51.096;16.976;2024-02-23T05:10:07;98042.36;;;9.83;79.71
59686;BME280;45554;51.096;16.976;2024-02-23T05:12:53;98042.52;;;9.83;79.97
59686;BME280;45554;51.096;16.976;2024-02-23T05:15:21;98040.17;;;9.82;79.90
59686;BME280;45554;51.096;16.976;2024-02-23T05:17:49;98046.94;;;9.82;79.86
59686;BME280;45554;51.096;16.976;2024-02-23T05:20:18;98047.44;;;9.83;79.73
59686;BME280;45554;51.096;16.976;2024-02-23T05:22:48;98050.34;;;9.84;79.88
59686;BME280;45554;51.096;16.976;2024-02-23T05:25:17;98061.42;;;9.85;80.04
59686;BME280;45554;51.096;16.976;2024-02-23T05:27:45;98066.31;;;9.85;79.83
59686;BME280;45554;51.096;16.976;2024-02-23T05:30:13;98077.53;;;9.85;79.82
59686;BME280;45554;51.096;16.976;2024-02-23T05:32:41;98084.08;;;9.84;79.90
59686;BME280;45554;51.096;16.976;2024-02-23T05:35:09;98094.02;;;9.84;79.83
59686;BME280;45554;51.096;16.976;2024-02-23T05:37:38;98095.13;;;9.86;79.84
59686;BME280;45554;51.096;16.976;2024-02-23T05:40:07;98100.40;;;9.89;79.62
59686;BME280;45554;51.096;16.976;2024-02-23T05:42:39;98108.02;;;9.95;79.66
59686;BME280;45554;51.096;16.976;2024-02-23T05:45:08;98103.55;;;9.94;79.59
59686;BME280;45554;51.096;16.976;2024-02-23T05:47:39;98119.26;;;10.06;79.40
59686;BME280;45554;51.096;16.976;2024-02-23T05:50:11;98116.15;;;10.12;79.16
59686;BME280;45554;51.096;16.976;2024-02-23T05:52:40;98122.77;;;10.16;78.97
59686;BME280;45554;51.096;16.976;2024-02-23T05:55:08;98123.77;;;10.21;78.67
59686;BME280;45554;51.096;16.976;2024-02-23T05:57:37;98129.17;;;10.25;78.38
59686;BME280;45554;51.096;16.976;2024-02-23T06:00:09;98131.56;;;10.28;78.22
59686;BME280;45554;51.096;16.976;2024-02-23T06:02:43;98136.58;;;10.28;77.94
59686;BME280;45554;51.096;16.976;2024-02-23T06:05:12;98143.04;;;10.35;77.65
59686;BME280;45554;51.096;16.976;2024-02-23T06:07:41;98149.98;;;10.37;77.45
59686;BME280;45554;51.096;16.976;2024-02-23T06:10:09;98156.36;;;10.40;77.03
59686;BME280;45554;51.096;16.976;2024-02-23T06:12:37;98163.19;;;10.42;77.07
59686;BME280;45554;51.096;16.976;2024-02-23T06:15:07;98166.58;;;10.44;76.62
59686;BME280;45554;51.096;16.976;2024-02-23T06:17:35;98179.19;;;10.46;76.44
59686;BME280;45554;51.096;16.976;2024-02-23T06:20:03;98180.35;;;10.49;76.58
59686;BME280;45554;51.096;16.976;2024-02-23T06:22:34;98182.36;;;10.48;76.22
59686;BME280;45554;51.096;16.976;2024-02-23T06:25:05;98186.98;;;10.53;75.90
59686;BME280;45554;51.096;16.976;2024-02-23T06:27:33;98187.58;;;10.54;75.80
59686;BME280;45554;51.096;16.976;2024-02-23T06:30:01;98200.69;;;10.56;75.65
59686;BME280;45554;51.096;16.976;2024-02-23T06:32:30;98204.50;;;10.57;75.31
59686;BME280;45554;51.096;16.976;2024-02-23T06:34:58;98205.36;;;10.57;75.40
59686;BME280;45554;51.096;16.976;2024-02-23T06:37:30;98212.00;;;10.57;75.18
59686;BME280;45554;51.096;16.976;2024-02-23T06:39:58;98215.34;;;10.57;75.02
59686;BME280;45554;51.096;16.976;2024-02-23T06:42:27;98213.72;;;10.58;74.76
59686;BME280;45554;51.096;16.976;2024-02-23T06:45:00;98217.29;;;10.57;74.53
59686;BME280;45554;51.096;16.976;2024-02-23T06:47:31;98230.55;;;10.57;74.46
59686;BME280;45554;51.096;16.976;2024-02-23T06:49:59;98232.55;;;10.56;74.26
59686;BME280;45554;51.096;16.976;2024-02-23T06:52:28;98238.77;;;10.56;74.15
59686;BME280;45554;51.096;16.976;2024-02-23T06:55:22;98243.50;;;10.55;73.84
59686;BME280;45554;51.096;16.976;2024-02-23T06:57:55;98244.75;;;10.55;73.50
59686;BME280;45554;51.096;16.976;2024-02-23T07:00:23;98239.18;;;10.55;73.34
59686;BME280;45554;51.096;16.976;2024-02-23T07:03:11;98240.51;;;10.56;73.23
59686;BME280;45554;51.096;16.976;2024-02-23T07:06:09;98247.85;;;10.56;73.08
59686;BME280;45554;51.096;16.976;2024-02-23T07:08:42;98249.37;;;10.56;72.99
59686;BME280;45554;51.096;16.976;2024-02-23T07:11:30;98255.71;;;10.58;72.98
59686;BME280;45554;51.096;16.976;2024-02-23T07:15:02;98264.40;;;10.59;72.68
59686;BME280;45554;51.096;16.976;2024-02-23T07:18:09;98263.95;;;10.60;72.60
59686;BME280;45554;51.096;16.976;2024-02-23T07:21:35;98246.91;;;10.49;72.52
59686;BME280;45554;51.096;16.976;2024-02-23T07:24:36;98264.55;;;10.64;72.72
59686;BME280;45554;51.096;16.976;2024-02-23T07:31:57;98266.80;;;10.70;72.27
59686;BME280;45554;51.096;16.976;2024-02-23T07:35:22;98273.28;;;10.76;72.06
59686;BME280;45554;51.096;16.976;2024-02-23T07:38:09;98274.16;;;10.78;71.88
59686;BME280;45554;51.096;16.976;2024-02-23T07:40:58;98280.97;;;10.80;71.62
59686;BME280;45554;51.096;16.976;2024-02-23T07:44:21;98283.71;;;10.83;71.27
59686;BME280;45554;51.096;16.976;2024-02-23T07:48:15;98284.96;;;10.84;71.09
59686;BME280;45554;51.096;16.976;2024-02-23T07:51:15;98270.86;;;10.72;70.84
59686;BME280;45554;51.096;16.976;2024-02-23T07:59:23;98310.96;;;10.92;70.27
59686;BME280;45554;51.096;16.976;2024-02-23T08:03:16;98312.10;;;10.97;70.22
